createdAt,value
2019-01-21T08:47:03.631Z,76.95
2019-01-21T09:32:03.131Z,76.33
2019-01-21T09:37:03.079Z,77.06
2019-01-21T10:00:02.821Z,77.06
2019-01-21T10:35:02.427Z,71.76
2019-01-21T10:36:02.416Z,71.86
2019-01-21T10:37:02.405Z,71.45
2019-01-21T10:38:02.392Z,72.35
2019-01-21T10:39:02.385Z,71.83
2019-01-21T10:40:02.371Z,71.31
2019-01-21T10:41:02.372Z,71.83
2019-01-21T10:42:02.346Z,70.96
2019-01-21T10:43:02.341Z,70.65
2019-01-21T10:44:02.324Z,70.55
2019-01-21T10:45:02.320Z,69.71
2019-01-21T10:46:02.300Z,70.26
2019-01-21T10:47:02.291Z,70.92
2019-01-21T10:48:02.287Z,71.73
2019-01-21T10:49:02.269Z,70.37
2019-01-21T10:50:02.256Z,70.47
2019-01-21T10:51:02.245Z,70.65
2019-01-21T10:52:02.232Z,70.65
2019-01-21T10:53:02.224Z,70.23
2019-01-21T10:54:02.217Z,69.99
2019-01-21T10:55:02.227Z,69.89
2019-01-21T10:56:02.236Z,69.33
2019-01-21T10:57:02.225Z,69.12
2019-01-21T10:58:02.169Z,69.02
2019-01-21T10:59:02.175Z,69.02
2019-01-21T11:00:02.174Z,68.60
2019-01-21T11:01:04.130Z,68.49
2019-01-21T11:02:02.179Z,68.70
2019-01-21T11:03:02.692Z,68.81
2019-01-21T11:04:02.098Z,69.29
2019-01-21T11:05:02.088Z,69.26
2019-01-21T11:06:02.078Z,69.02
2019-01-21T11:07:02.067Z,68.39
2019-01-21T11:08:02.069Z,68.26
2019-01-21T11:09:02.041Z,67.39
2019-01-21T11:10:02.048Z,66.87
2019-01-21T11:11:02.020Z,66.45
2019-01-21T11:12:02.011Z,66.24
2019-01-21T11:13:01.999Z,65.83
2019-01-21T11:14:01.985Z,66.58
2019-01-21T11:15:01.977Z,66.55
2019-01-21T11:16:01.973Z,66.04
2019-01-21T11:17:01.951Z,66.07
2019-01-21T11:18:01.939Z,67.69
2019-01-21T11:19:01.929Z,68.53
2019-01-21T11:20:04.160Z,68.84
2019-01-21T11:21:01.907Z,69.36
2019-01-21T11:22:01.896Z,69.64
2019-01-21T11:23:01.887Z,69.02
2019-01-21T11:24:01.874Z,68.26
2019-01-21T11:25:01.863Z,67.52
2019-01-21T11:26:01.851Z,66.38
2019-01-21T11:27:01.841Z,67.14
2019-01-21T11:28:01.835Z,68.08
2019-01-21T11:29:01.822Z,68.53
2019-01-21T11:30:01.839Z,68.63
2019-01-21T11:31:01.796Z,69.05
2019-01-21T11:32:01.784Z,68.74
2019-01-21T11:33:01.782Z,69.05
2019-01-21T11:34:01.762Z,69.68
2019-01-21T11:35:01.751Z,69.02
2019-01-21T11:36:01.745Z,68.49
2019-01-21T11:37:01.731Z,68.81
2019-01-21T11:38:01.716Z,69.43
2019-01-21T11:39:01.705Z,69.02
2019-01-21T11:40:01.695Z,68.18
2019-01-21T11:41:01.684Z,68.29
2019-01-21T11:42:01.674Z,68.29
2019-01-21T11:43:01.666Z,68.63
2019-01-21T11:44:01.655Z,69.95
2019-01-21T11:45:01.643Z,70.02
2019-01-21T11:46:01.649Z,70.89
2019-01-21T11:47:01.818Z,70.58
2019-01-21T11:48:01.607Z,71.41
2019-01-21T11:49:01.593Z,70.34
2019-01-21T11:50:01.588Z,70.89
2019-01-21T11:51:01.570Z,70.58
2019-01-21T11:52:01.559Z,70.68
2019-01-21T11:53:01.547Z,70.78
2019-01-21T11:54:01.538Z,70.65
2019-01-21T11:55:01.542Z,70.09
2019-01-21T11:56:01.523Z,69.89
2019-01-21T11:57:01.504Z,69.12
2019-01-21T11:58:01.493Z,69.05
2019-01-21T11:59:01.488Z,68.81
2019-01-21T12:00:01.474Z,68.36
2019-01-21T12:01:01.461Z,66.74
2019-01-21T12:02:01.451Z,66.42
2019-01-21T12:03:01.436Z,66.08
2019-01-21T12:04:01.433Z,65.77
2019-01-21T12:05:01.423Z,65.81
2019-01-21T12:06:01.413Z,64.11
2019-01-21T12:07:01.395Z,63.43
2019-01-21T12:08:01.388Z,60.88
2019-01-21T12:09:01.369Z,61.27
2019-01-21T12:10:01.359Z,60.23
2019-01-21T12:11:01.355Z,59.89
2019-01-21T12:12:01.339Z,60.23
2019-01-21T12:13:01.326Z,59.58
2019-01-21T12:14:01.318Z,58.69
2019-01-21T12:15:01.305Z,57.84
2019-01-21T12:16:01.297Z,56.03
2019-01-21T12:17:01.280Z,55.27
2019-01-21T12:18:01.277Z,55.53
2019-01-21T12:19:01.257Z,58.46
2019-01-21T12:20:01.266Z,60.08
2019-01-21T12:21:01.238Z,60.39
2019-01-21T12:22:01.229Z,60.39
2019-01-21T12:23:03.210Z,60.46
2019-01-21T12:24:01.202Z,60.36
2019-01-21T12:25:01.195Z,59.92
2019-01-21T12:26:01.178Z,60.02
2019-01-21T12:27:01.167Z,60.13
2019-01-21T12:28:01.154Z,60.02
2019-01-21T12:29:02.028Z,59.37
2019-01-21T12:30:01.134Z,59.06
2019-01-21T12:31:01.126Z,59.16
2019-01-21T12:32:01.110Z,59.55
2019-01-21T12:33:01.098Z,57.37
2019-01-21T12:34:01.085Z,58.20
2019-01-21T12:35:01.082Z,59.42
2019-01-21T12:36:01.063Z,59.60
2019-01-21T12:37:01.053Z,60.31
2019-01-21T12:38:01.045Z,62.24
2019-01-21T12:39:01.033Z,62.00
2019-01-21T12:40:01.021Z,61.25
2019-01-21T12:41:01.011Z,61.35
2019-01-21T12:42:01.000Z,62.05
2019-01-21T12:43:00.987Z,61.50
2019-01-21T12:44:00.973Z,61.06
2019-01-21T12:45:00.964Z,58.75
2019-01-21T12:46:00.948Z,58.38
2019-01-21T12:47:00.936Z,57.24
2019-01-21T12:48:00.935Z,58.02
2019-01-21T12:49:00.913Z,58.20
2019-01-21T12:50:00.903Z,57.55
2019-01-21T12:51:00.891Z,56.46
2019-01-21T12:52:00.887Z,55.01
2019-01-21T12:53:00.869Z,56.07
2019-01-21T12:54:00.858Z,56.03
2019-01-21T12:55:00.849Z,55.38
2019-01-21T12:56:00.840Z,54.11
2019-01-21T12:57:00.825Z,53.23
2019-01-21T12:58:01.829Z,52.41
2019-01-21T12:59:00.798Z,52.30
2019-01-21T13:00:00.792Z,52.97
2019-01-21T13:01:00.786Z,52.97
2019-01-21T13:02:00.772Z,53.38
2019-01-21T13:03:00.753Z,54.44
2019-01-21T13:04:00.744Z,54.34
2019-01-21T13:05:00.731Z,54.11
2019-01-21T13:06:00.725Z,53.97
2019-01-21T13:07:00.709Z,54.93
2019-01-21T13:08:00.708Z,55.14
2019-01-21T13:09:00.684Z,55.24
2019-01-21T13:10:00.673Z,56.57
2019-01-21T13:11:00.664Z,56.31
2019-01-21T13:12:00.663Z,55.71
2019-01-21T13:13:00.643Z,54.68
2019-01-21T13:14:01.770Z,55.56
2019-01-21T13:15:00.615Z,54.80
2019-01-21T13:16:00.825Z,53.85
2019-01-21T13:17:00.592Z,55.53
2019-01-21T13:18:00.583Z,54.55
2019-01-21T13:19:00.572Z,54.80
2019-01-21T13:20:00.559Z,55.53
2019-01-21T13:21:00.548Z,54.78
2019-01-21T13:22:00.536Z,54.88
2019-01-21T13:23:00.525Z,54.42
2019-01-21T13:24:00.543Z,52.92
2019-01-21T13:25:00.501Z,52.80
2019-01-21T13:26:00.492Z,52.36
2019-01-21T13:27:00.478Z,51.59
2019-01-21T13:28:00.468Z,50.94
2019-01-21T13:29:00.456Z,49.99
2019-01-21T13:30:00.443Z,49.68
2019-01-21T13:31:00.432Z,49.15
2019-01-21T13:32:00.426Z,48.40
2019-01-21T13:33:00.410Z,48.63
2019-01-21T13:34:00.397Z,48.63
2019-01-21T13:35:00.389Z,48.52
2019-01-21T13:36:00.377Z,48.32
2019-01-21T13:37:00.362Z,49.09
2019-01-21T13:38:00.351Z,51.01
2019-01-21T13:39:00.973Z,51.45
2019-01-21T13:40:00.328Z,51.01
2019-01-21T13:41:00.318Z,52.53
2019-01-21T13:42:00.309Z,53.20
2019-01-21T13:43:00.296Z,54.68
2019-01-21T13:44:00.285Z,54.49
2019-01-21T13:45:00.276Z,55.76
2019-01-21T13:46:00.264Z,56.51
2019-01-21T13:47:00.258Z,57.03
2019-01-21T13:48:00.246Z,56.28
2019-01-21T13:49:00.229Z,55.66
2019-01-21T13:50:00.248Z,56.05
2019-01-21T13:51:00.207Z,55.01
2019-01-21T13:52:00.198Z,55.66
2019-01-21T13:53:00.191Z,56.28
2019-01-21T13:54:00.172Z,56.36
2019-01-21T13:55:00.216Z,55.01
2019-01-21T13:56:00.152Z,55.63
2019-01-21T13:57:00.139Z,55.63
2019-01-21T13:58:00.128Z,56.67
2019-01-21T13:59:00.116Z,58.02
2019-01-21T14:00:00.168Z,58.15
2019-01-21T14:01:00.099Z,58.77
2019-01-21T14:02:00.083Z,59.08
2019-01-21T14:03:00.070Z,58.56
2019-01-21T14:04:00.063Z,57.71
2019-01-21T14:05:00.051Z,58.54
2019-01-21T14:06:00.038Z,58.33
2019-01-21T14:07:00.031Z,58.75
2019-01-21T14:08:00.013Z,58.02
2019-01-21T14:09:00.007Z,58.64
2019-01-21T14:09:59.991Z,58.77
2019-01-21T14:10:59.986Z,59.74
2019-01-21T14:11:59.970Z,59.42
2019-01-21T14:12:59.957Z,59.76
2019-01-21T14:13:59.946Z,60.41
2019-01-21T14:15:01.936Z,61.59
2019-01-21T14:15:59.931Z,62.03
2019-01-21T14:16:59.912Z,61.82
2019-01-21T14:17:59.901Z,63.20
2019-01-21T14:18:59.891Z,62.76
2019-01-21T14:19:59.880Z,62.76
2019-01-21T14:20:59.865Z,62.21
2019-01-21T14:21:59.861Z,62.21
2019-01-21T14:22:59.844Z,62.97
2019-01-21T14:23:59.831Z,62.65
2019-01-21T14:24:59.820Z,63.62
2019-01-21T14:25:59.810Z,63.73
2019-01-21T14:26:59.796Z,63.28
2019-01-21T14:27:59.788Z,62.63
2019-01-21T14:28:59.774Z,62.34
2019-01-21T14:29:59.765Z,62.58
2019-01-21T14:30:59.752Z,63.42
2019-01-21T14:31:59.745Z,63.34
2019-01-21T14:32:59.731Z,64.41
2019-01-21T14:33:59.717Z,64.07
2019-01-21T14:34:59.705Z,64.59
2019-01-21T14:36:00.552Z,64.38
2019-01-21T14:36:59.689Z,64.69
2019-01-21T14:37:59.671Z,64.87
2019-01-21T14:38:59.678Z,64.45
2019-01-21T14:39:59.654Z,63.94
2019-01-21T14:40:59.641Z,64.38
2019-01-21T14:41:59.630Z,65.17
2019-01-21T14:42:59.615Z,66.11
2019-01-21T14:43:59.609Z,66.00
2019-01-21T14:44:59.604Z,65.97
2019-01-21T14:45:59.588Z,65.56
2019-01-21T14:46:59.568Z,65.56
2019-01-21T14:47:59.564Z,65.56
2019-01-21T14:49:04.558Z,66.25
2019-01-21T14:49:59.540Z,64.90
2019-01-21T14:50:59.561Z,64.90
2019-01-21T14:51:59.513Z,65.11
2019-01-21T14:52:59.506Z,64.59
2019-01-21T14:53:59.503Z,64.62
2019-01-21T14:54:59.485Z,65.66
2019-01-21T14:55:59.469Z,66.21
2019-01-21T14:56:59.469Z,66.18
2019-01-21T14:57:59.471Z,66.00
2019-01-21T14:58:59.520Z,66.55
2019-01-21T14:59:59.430Z,66.52
2019-01-21T15:00:59.448Z,66.63
2019-01-21T15:01:59.409Z,66.63
2019-01-21T15:02:59.403Z,66.87
2019-01-21T15:03:59.384Z,66.87
2019-01-21T15:04:59.375Z,67.91
2019-01-21T15:05:59.368Z,67.70
2019-01-21T15:06:59.347Z,67.60
2019-01-21T15:07:59.360Z,67.39
2019-01-21T15:08:59.385Z,67.84
2019-01-21T15:09:59.380Z,68.23
2019-01-21T15:10:59.302Z,68.05
2019-01-21T15:11:59.290Z,68.33
2019-01-21T15:12:59.345Z,67.70
2019-01-21T15:13:59.341Z,67.60
2019-01-21T15:14:59.258Z,67.39
2019-01-21T15:15:59.255Z,68.26
2019-01-21T15:16:59.275Z,68.89
2019-01-21T15:17:59.229Z,68.70
2019-01-21T15:18:59.278Z,69.23
2019-01-21T15:19:59.202Z,69.43
2019-01-21T15:20:59.243Z,69.12
2019-01-21T15:21:59.190Z,69.23
2019-01-21T15:22:59.252Z,69.96
2019-01-21T15:23:59.247Z,69.54
2019-01-21T15:24:59.149Z,69.64
2019-01-21T15:26:03.409Z,69.75
2019-01-21T15:26:59.180Z,69.43
2019-01-21T15:27:59.111Z,69.54
2019-01-21T15:28:59.179Z,69.86
2019-01-21T15:29:59.176Z,69.75
2019-01-21T15:30:59.097Z,69.33
2019-01-21T15:31:59.072Z,69.33
2019-01-21T15:32:59.120Z,69.12
2019-01-21T15:33:59.044Z,69.23
2019-01-21T15:34:59.038Z,69.23
2019-01-21T15:35:59.055Z,69.43
2019-01-21T15:36:59.043Z,69.43
2019-01-21T15:37:59.114Z,69.12
2019-01-21T15:39:59.028Z,69.23
2019-01-21T15:40:59.002Z,69.43
2019-01-21T15:41:59.031Z,69.33
2019-01-21T15:42:59.041Z,69.43
2019-01-21T15:43:59.003Z,69.54
2019-01-21T15:46:59.009Z,69.99
2019-01-21T15:49:58.870Z,71.38
2019-01-21T15:51:05.003Z,70.86
2019-01-21T15:54:23.298Z,71.52
2019-01-21T15:56:23.275Z,71.17
2019-01-21T15:57:24.222Z,70.16
2019-01-21T16:01:23.237Z,72.14
2019-01-21T16:05:23.189Z,71.52
2019-01-21T16:07:23.195Z,71.66
2019-01-21T16:08:23.200Z,71.10
2019-01-21T16:18:23.041Z,72.80
2019-01-21T16:24:22.967Z,72.60
2019-01-21T16:25:22.956Z,72.67
2019-01-21T17:59:46.397Z,77.17
2019-01-21T18:04:46.342Z,77.27
2019-01-21T18:56:45.777Z,78.11
2019-01-21T19:28:45.425Z,77.48
2019-01-21T19:29:46.118Z,77.38
2019-01-21T19:35:45.349Z,77.48
2019-01-21T19:48:45.212Z,78.53
2019-01-21T20:15:44.911Z,78.63
2019-01-21T20:21:44.850Z,78.22
2019-01-21T20:23:44.826Z,77.27
2019-01-21T20:27:44.781Z,77.38
2019-01-21T22:43:43.292Z,79.62
2019-01-21T22:50:43.219Z,78.88
2019-01-21T23:26:42.823Z,79.09
